sensor_id;sensor_type;location;lat;lon;timestamp;P1;durP1;ratioP1;P2;durP2;ratioP2
31676;SDS011;18385;51.572;6.578;2022-11-03T00:02:24;15.35;;;1.85;;
31676;SDS011;18385;51.572;6.578;2022-11-03T00:04:50;10.63;;;2.03;;
31676;SDS011;18385;51.572;6.578;2022-11-03T00:07:22;7.35;;;1.73;;
31676;SDS011;18385;51.572;6.578;2022-11-03T00:09:47;11.77;;;1.98;;
31676;SDS011;18385;51.572;6.578;2022-11-03T00:12:13;11.90;;;1.60;;
31676;SDS011;18385;51.572;6.578;2022-11-03T00:14:39;8.23;;;2.05;;
31676;SDS011;18385;51.572;6.578;2022-11-03T00:17:08;6.70;;;1.08;;
31676;SDS011;18385;51.572;6.578;2022-11-03T00:19:33;7.85;;;1.02;;
31676;SDS011;18385;51.572;6.578;2022-11-03T00:21:59;4.95;;;0.80;;
31676;SDS011;18385;51.572;6.578;2022-11-03T00:24:24;7.13;;;1.70;;
31676;SDS011;18385;51.572;6.578;2022-11-03T00:26:50;9.55;;;1.73;;
31676;SDS011;18385;51.572;6.578;2022-11-03T00:29:16;9.50;;;1.42;;
31676;SDS011;18385;51.572;6.578;2022-11-03T00:31:42;6.72;;;1.67;;
31676;SDS011;18385;51.572;6.578;2022-11-03T00:34:09;6.65;;;1.48;;
31676;SDS011;18385;51.572;6.578;2022-11-03T00:36:37;16.92;;;1.55;;
31676;SDS011;18385;51.572;6.578;2022-11-03T00:39:04;8.20;;;1.40;;
31676;SDS011;18385;51.572;6.578;2022-11-03T00:41:30;12.57;;;1.77;;
31676;SDS011;18385;51.572;6.578;2022-11-03T00:43:57;10.25;;;1.48;;
31676;SDS011;18385;51.572;6.578;2022-11-03T00:46:23;9.05;;;1.60;;
31676;SDS011;18385;51.572;6.578;2022-11-03T00:48:50;9.35;;;2.00;;
31676;SDS011;18385;51.572;6.578;2022-11-03T00:51:17;7.05;;;2.28;;
31676;SDS011;18385;51.572;6.578;2022-11-03T00:53:51;9.13;;;2.17;;
31676;SDS011;18385;51.572;6.578;2022-11-03T01:01:19;10.50;;;1.73;;
31676;SDS011;18385;51.572;6.578;2022-11-03T01:03:47;8.63;;;1.77;;
31676;SDS011;18385;51.572;6.578;2022-11-03T01:06:38;7.53;;;1.38;;
31676;SDS011;18385;51.572;6.578;2022-11-03T01:09:18;7.90;;;1.80;;
31676;SDS011;18385;51.572;6.578;2022-11-03T01:11:55;8.23;;;2.28;;
31676;SDS011;18385;51.572;6.578;2022-11-03T01:14:22;9.52;;;2.15;;
31676;SDS011;18385;51.572;6.578;2022-11-03T01:16:48;7.07;;;1.90;;
31676;SDS011;18385;51.572;6.578;2022-11-03T01:19:13;8.75;;;2.15;;
31676;SDS011;18385;51.572;6.578;2022-11-03T01:21:39;9.85;;;1.80;;
31676;SDS011;18385;51.572;6.578;2022-11-03T01:24:05;10.20;;;2.42;;
31676;SDS011;18385;51.572;6.578;2022-11-03T01:26:31;10.32;;;1.83;;
31676;SDS011;18385;51.572;6.578;2022-11-03T01:28:57;13.35;;;1.80;;
31676;SDS011;18385;51.572;6.578;2022-11-03T01:31:24;11.18;;;1.65;;
31676;SDS011;18385;51.572;6.578;2022-11-03T01:33:50;12.00;;;1.42;;
31676;SDS011;18385;51.572;6.578;2022-11-03T01:36:17;8.75;;;1.00;;
31676;SDS011;18385;51.572;6.578;2022-11-03T01:38:44;7.40;;;1.27;;
31676;SDS011;18385;51.572;6.578;2022-11-03T01:41:14;5.25;;;0.80;;
31676;SDS011;18385;51.572;6.578;2022-11-03T01:46:33;7.07;;;1.55;;
31676;SDS011;18385;51.572;6.578;2022-11-03T01:49:08;8.18;;;1.73;;
31676;SDS011;18385;51.572;6.578;2022-11-03T01:52:03;12.13;;;1.70;;
31676;SDS011;18385;51.572;6.578;2022-11-03T01:54:41;13.25;;;2.47;;
31676;SDS011;18385;51.572;6.578;2022-11-03T01:57:10;11.40;;;1.92;;
31676;SDS011;18385;51.572;6.578;2022-11-03T01:59:41;8.15;;;2.97;;
31676;SDS011;18385;51.572;6.578;2022-11-03T02:02:07;8.48;;;1.85;;
31676;SDS011;18385;51.572;6.578;2022-11-03T02:04:33;7.68;;;1.52;;
31676;SDS011;18385;51.572;6.578;2022-11-03T02:07:10;8.48;;;1.83;;
31676;SDS011;18385;51.572;6.578;2022-11-03T02:09:49;11.50;;;2.25;;
31676;SDS011;18385;51.572;6.578;2022-11-03T02:12:14;8.27;;;2.08;;
31676;SDS011;18385;51.572;6.578;2022-11-03T02:14:45;12.45;;;1.90;;
31676;SDS011;18385;51.572;6.578;2022-11-03T02:17:16;9.02;;;2.20;;
31676;SDS011;18385;51.572;6.578;2022-11-03T02:19:47;12.82;;;3.28;;
31676;SDS011;18385;51.572;6.578;2022-11-03T02:27:29;9.85;;;1.35;;
31676;SDS011;18385;51.572;6.578;2022-11-03T02:29:55;10.85;;;2.03;;
31676;SDS011;18385;51.572;6.578;2022-11-03T02:32:24;9.95;;;1.48;;
31676;SDS011;18385;51.572;6.578;2022-11-03T02:37:30;6.07;;;1.20;;
31676;SDS011;18385;51.572;6.578;2022-11-03T02:42:37;4.07;;;1.50;;
31676;SDS011;18385;51.572;6.578;2022-11-03T02:45:07;7.82;;;2.03;;
31676;SDS011;18385;51.572;6.578;2022-11-03T02:47:35;6.68;;;2.13;;
31676;SDS011;18385;51.572;6.578;2022-11-03T02:50:03;9.20;;;1.35;;
31676;SDS011;18385;51.572;6.578;2022-11-03T02:52:39;10.93;;;1.23;;
31676;SDS011;18385;51.572;6.578;2022-11-03T02:57:55;9.55;;;1.33;;
31676;SDS011;18385;51.572;6.578;2022-11-03T03:00:34;4.47;;;0.98;;
31676;SDS011;18385;51.572;6.578;2022-11-03T03:03:07;5.68;;;1.40;;
31676;SDS011;18385;51.572;6.578;2022-11-03T03:06:05;9.00;;;1.88;;
31676;SDS011;18385;51.572;6.578;2022-11-03T03:08:43;8.65;;;1.40;;
31676;SDS011;18385;51.572;6.578;2022-11-03T03:11:15;7.80;;;1.63;;
31676;SDS011;18385;51.572;6.578;2022-11-03T03:14:01;4.70;;;1.30;;
31676;SDS011;18385;51.572;6.578;2022-11-03T03:16:49;6.95;;;1.75;;
31676;SDS011;18385;51.572;6.578;2022-11-03T03:22:05;8.88;;;1.30;;
31676;SDS011;18385;51.572;6.578;2022-11-03T03:27:42;7.95;;;1.50;;
31676;SDS011;18385;51.572;6.578;2022-11-03T03:30:13;8.80;;;1.50;;
31676;SDS011;18385;51.572;6.578;2022-11-03T03:32:41;14.68;;;1.42;;
31676;SDS011;18385;51.572;6.578;2022-11-03T03:35:10;7.40;;;1.95;;
31676;SDS011;18385;51.572;6.578;2022-11-03T03:37:41;5.00;;;1.23;;
31676;SDS011;18385;51.572;6.578;2022-11-03T03:42:38;6.35;;;1.00;;
31676;SDS011;18385;51.572;6.578;2022-11-03T03:45:05;6.40;;;1.13;;
31676;SDS011;18385;51.572;6.578;2022-11-03T03:47:33;6.70;;;1.80;;
31676;SDS011;18385;51.572;6.578;2022-11-03T03:49:59;8.18;;;1.40;;
31676;SDS011;18385;51.572;6.578;2022-11-03T03:52:26;8.77;;;1.33;;
31676;SDS011;18385;51.572;6.578;2022-11-03T03:54:53;8.43;;;1.55;;
31676;SDS011;18385;51.572;6.578;2022-11-03T03:57:21;7.20;;;1.75;;
31676;SDS011;18385;51.572;6.578;2022-11-03T03:59:48;7.65;;;1.52;;
31676;SDS011;18385;51.572;6.578;2022-11-03T04:02:14;8.43;;;1.60;;
31676;SDS011;18385;51.572;6.578;2022-11-03T04:04:40;13.43;;;2.92;;
31676;SDS011;18385;51.572;6.578;2022-11-03T04:07:06;4.90;;;1.35;;
31676;SDS011;18385;51.572;6.578;2022-11-03T04:09:51;6.57;;;1.45;;
31676;SDS011;18385;51.572;6.578;2022-11-03T04:12:16;5.75;;;1.23;;
31676;SDS011;18385;51.572;6.578;2022-11-03T04:15:01;6.28;;;1.20;;
31676;SDS011;18385;51.572;6.578;2022-11-03T04:17:45;11.20;;;1.90;;
31676;SDS011;18385;51.572;6.578;2022-11-03T04:20:31;7.97;;;1.55;;
31676;SDS011;18385;51.572;6.578;2022-11-03T04:23:17;11.93;;;1.98;;
31676;SDS011;18385;51.572;6.578;2022-11-03T04:25:50;5.78;;;1.58;;
31676;SDS011;18385;51.572;6.578;2022-11-03T04:28:19;8.23;;;2.10;;
31676;SDS011;18385;51.572;6.578;2022-11-03T04:30:45;11.00;;;1.88;;
31676;SDS011;18385;51.572;6.578;2022-11-03T04:33:15;7.32;;;1.88;;
31676;SDS011;18385;51.572;6.578;2022-11-03T04:35:42;9.57;;;1.80;;
31676;SDS011;18385;51.572;6.578;2022-11-03T04:38:18;9.90;;;2.13;;
31676;SDS011;18385;51.572;6.578;2022-11-03T04:40:47;9.60;;;1.80;;
31676;SDS011;18385;51.572;6.578;2022-11-03T04:43:19;5.75;;;1.98;;
31676;SDS011;18385;51.572;6.578;2022-11-03T04:45:46;9.13;;;2.03;;
31676;SDS011;18385;51.572;6.578;2022-11-03T04:48:23;12.02;;;1.85;;
31676;SDS011;18385;51.572;6.578;2022-11-03T04:50:53;10.27;;;2.35;;
31676;SDS011;18385;51.572;6.578;2022-11-03T04:53:22;11.90;;;1.92;;
31676;SDS011;18385;51.572;6.578;2022-11-03T04:55:52;7.38;;;2.20;;
31676;SDS011;18385;51.572;6.578;2022-11-03T04:58:28;11.25;;;2.05;;
31676;SDS011;18385;51.572;6.578;2022-11-03T05:00:59;7.43;;;2.17;;
31676;SDS011;18385;51.572;6.578;2022-11-03T05:03:28;7.28;;;1.65;;
31676;SDS011;18385;51.572;6.578;2022-11-03T05:05:56;11.98;;;3.25;;
31676;SDS011;18385;51.572;6.578;2022-11-03T05:08:22;7.97;;;2.05;;
31676;SDS011;18385;51.572;6.578;2022-11-03T05:10:48;8.63;;;2.22;;
31676;SDS011;18385;51.572;6.578;2022-11-03T05:13:20;4.53;;;1.25;;
31676;SDS011;18385;51.572;6.578;2022-11-03T05:15:51;8.63;;;2.13;;
31676;SDS011;18385;51.572;6.578;2022-11-03T05:18:38;12.30;;;2.17;;
31676;SDS011;18385;51.572;6.578;2022-11-03T05:21:07;7.50;;;1.55;;
31676;SDS011;18385;51.572;6.578;2022-11-03T05:26:11;10.48;;;1.65;;
31676;SDS011;18385;51.572;6.578;2022-11-03T05:28:51;9.27;;;1.70;;
31676;SDS011;18385;51.572;6.578;2022-11-03T05:31:27;8.02;;;2.40;;
31676;SDS011;18385;51.572;6.578;2022-11-03T05:33:58;9.02;;;2.05;;
31676;SDS011;18385;51.572;6.578;2022-11-03T05:36:29;5.60;;;1.70;;
31676;SDS011;18385;51.572;6.578;2022-11-03T05:39:00;7.90;;;1.30;;
31676;SDS011;18385;51.572;6.578;2022-11-03T05:41:58;7.25;;;2.08;;
31676;SDS011;18385;51.572;6.578;2022-11-03T05:44:27;7.15;;;1.30;;
31676;SDS011;18385;51.572;6.578;2022-11-03T05:46:58;6.22;;;1.27;;
31676;SDS011;18385;51.572;6.578;2022-11-03T05:49:26;13.88;;;1.48;;
31676;SDS011;18385;51.572;6.578;2022-11-03T05:51:52;9.32;;;2.05;;
31676;SDS011;18385;51.572;6.578;2022-11-03T05:54:23;10.07;;;1.65;;
31676;SDS011;18385;51.572;6.578;2022-11-03T05:56:51;8.48;;;1.60;;
31676;SDS011;18385;51.572;6.578;2022-11-03T05:59:22;5.20;;;1.52;;
31676;SDS011;18385;51.572;6.578;2022-11-03T06:01:51;9.23;;;2.05;;
31676;SDS011;18385;51.572;6.578;2022-11-03T06:04:18;9.57;;;1.77;;
31676;SDS011;18385;51.572;6.578;2022-11-03T06:06:53;9.70;;;1.67;;
31676;SDS011;18385;51.572;6.578;2022-11-03T06:09:26;6.05;;;1.40;;
31676;SDS011;18385;51.572;6.578;2022-11-03T06:11:53;11.50;;;1.95;;
31676;SDS011;18385;51.572;6.578;2022-11-03T06:14:22;8.38;;;1.35;;
31676;SDS011;18385;51.572;6.578;2022-11-03T06:19:26;6.80;;;1.33;;
31676;SDS011;18385;51.572;6.578;2022-11-03T06:25:00;8.75;;;1.58;;
31676;SDS011;18385;51.572;6.578;2022-11-03T06:27:37;7.70;;;1.90;;
31676;SDS011;18385;51.572;6.578;2022-11-03T06:32:52;11.10;;;1.83;;
31676;SDS011;18385;51.572;6.578;2022-11-03T06:35:22;7.38;;;1.52;;
31676;SDS011;18385;51.572;6.578;2022-11-03T06:37:47;5.70;;;1.45;;
31676;SDS011;18385;51.572;6.578;2022-11-03T06:42:39;6.88;;;1.30;;
31676;SDS011;18385;51.572;6.578;2022-11-03T06:45:19;8.70;;;1.45;;
31676;SDS011;18385;51.572;6.578;2022-11-03T06:47:48;11.00;;;2.03;;
31676;SDS011;18385;51.572;6.578;2022-11-03T06:50:29;13.88;;;1.85;;
31676;SDS011;18385;51.572;6.578;2022-11-03T06:52:56;8.98;;;1.45;;
31676;SDS011;18385;51.572;6.578;2022-11-03T06:55:36;6.93;;;1.20;;
31676;SDS011;18385;51.572;6.578;2022-11-03T07:00:56;8.88;;;1.65;;
31676;SDS011;18385;51.572;6.578;2022-11-03T07:03:30;13.20;;;2.70;;
31676;SDS011;18385;51.572;6.578;2022-11-03T07:08:47;8.98;;;1.52;;
31676;SDS011;18385;51.572;6.578;2022-11-03T07:11:15;5.00;;;1.40;;
31676;SDS011;18385;51.572;6.578;2022-11-03T07:13:44;6.88;;;1.48;;
31676;SDS011;18385;51.572;6.578;2022-11-03T07:19:13;9.70;;;1.63;;
31676;SDS011;18385;51.572;6.578;2022-11-03T07:21:44;12.80;;;2.25;;
31676;SDS011;18385;51.572;6.578;2022-11-03T07:24:23;8.23;;;1.73;;
31676;SDS011;18385;51.572;6.578;2022-11-03T07:29:37;10.93;;;1.83;;
31676;SDS011;18385;51.572;6.578;2022-11-03T07:32:04;6.10;;;1.58;;
31676;SDS011;18385;51.572;6.578;2022-11-03T07:34:37;4.60;;;1.33;;
31676;SDS011;18385;51.572;6.578;2022-11-03T07:37:03;6.35;;;1.77;;
31676;SDS011;18385;51.572;6.578;2022-11-03T07:39:31;5.15;;;1.02;;
31676;SDS011;18385;51.572;6.578;2022-11-03T07:42:01;9.45;;;1.55;;
31676;SDS011;18385;51.572;6.578;2022-11-03T07:44:37;6.87;;;1.47;;
31676;SDS011;18385;51.572;6.578;2022-11-03T07:47:04;7.60;;;1.45;;
31676;SDS011;18385;51.572;6.578;2022-11-03T07:49:36;9.23;;;2.15;;
31676;SDS011;18385;51.572;6.578;2022-11-03T07:52:04;7.72;;;1.80;;
31676;SDS011;18385;51.572;6.578;2022-11-03T07:54:35;5.35;;;1.35;;
31676;SDS011;18385;51.572;6.578;2022-11-03T07:59:39;6.78;;;1.80;;
31676;SDS011;18385;51.572;6.578;2022-11-03T08:04:48;8.38;;;2.13;;
31676;SDS011;18385;51.572;6.578;2022-11-03T08:07:14;9.02;;;1.42;;
31676;SDS011;18385;51.572;6.578;2022-11-03T08:09:39;6.38;;;1.58;;
31676;SDS011;18385;51.572;6.578;2022-11-03T08:12:05;6.07;;;1.40;;
31676;SDS011;18385;51.572;6.578;2022-11-03T08:14:31;5.97;;;1.52;;
31676;SDS011;18385;51.572;6.578;2022-11-03T08:16:56;10.75;;;2.40;;
31676;SDS011;18385;51.572;6.578;2022-11-03T08:19:22;6.38;;;1.42;;
31676;SDS011;18385;51.572;6.578;2022-11-03T08:21:48;7.13;;;1.60;;
31676;SDS011;18385;51.572;6.578;2022-11-03T08:24:13;9.10;;;1.45;;
31676;SDS011;18385;51.572;6.578;2022-11-03T08:26:39;7.18;;;1.50;;
31676;SDS011;18385;51.572;6.578;2022-11-03T08:29:04;6.57;;;1.52;;
31676;SDS011;18385;51.572;6.578;2022-11-03T08:31:30;7.22;;;1.80;;
31676;SDS011;18385;51.572;6.578;2022-11-03T08:33:56;5.63;;;1.60;;
31676;SDS011;18385;51.572;6.578;2022-11-03T08:36:21;7.93;;;1.40;;
31676;SDS011;18385;51.572;6.578;2022-11-03T08:38:47;7.30;;;1.77;;
31676;SDS011;18385;51.572;6.578;2022-11-03T08:41:13;6.38;;;1.65;;
31676;SDS011;18385;51.572;6.578;2022-11-03T08:43:38;8.65;;;1.88;;
31676;SDS011;18385;51.572;6.578;2022-11-03T08:46:04;10.68;;;1.60;;
31676;SDS011;18385;51.572;6.578;2022-11-03T08:48:30;10.57;;;2.85;;
31676;SDS011;18385;51.572;6.578;2022-11-03T08:50:55;6.72;;;2.13;;
31676;SDS011;18385;51.572;6.578;2022-11-03T08:53:24;6.28;;;1.55;;
31676;SDS011;18385;51.572;6.578;2022-11-03T08:55:51;7.57;;;1.80;;
31676;SDS011;18385;51.572;6.578;2022-11-03T08:58:17;8.15;;;2.05;;
31676;SDS011;18385;51.572;6.578;2022-11-03T09:00:43;9.23;;;2.30;;
31676;SDS011;18385;51.572;6.578;2022-11-03T09:03:08;8.88;;;1.80;;
31676;SDS011;18385;51.572;6.578;2022-11-03T09:05:34;12.38;;;1.52;;
31676;SDS011;18385;51.572;6.578;2022-11-03T09:08:00;6.95;;;2.05;;
31676;SDS011;18385;51.572;6.578;2022-11-03T09:10:26;12.93;;;1.80;;
31676;SDS011;18385;51.572;6.578;2022-11-03T09:12:52;9.32;;;1.95;;
31676;SDS011;18385;51.572;6.578;2022-11-03T09:15:18;11.02;;;2.25;;
31676;SDS011;18385;51.572;6.578;2022-11-03T09:17:44;8.40;;;2.00;;
31676;SDS011;18385;51.572;6.578;2022-11-03T09:20:10;11.00;;;1.98;;
31676;SDS011;18385;51.572;6.578;2022-11-03T09:22:36;8.13;;;2.65;;
31676;SDS011;18385;51.572;6.578;2022-11-03T09:25:02;9.25;;;1.70;;
31676;SDS011;18385;51.572;6.578;2022-11-03T09:27:28;8.88;;;1.70;;
31676;SDS011;18385;51.572;6.578;2022-11-03T09:29:54;6.03;;;1.70;;
31676;SDS011;18385;51.572;6.578;2022-11-03T09:32:20;4.68;;;1.45;;
31676;SDS011;18385;51.572;6.578;2022-11-03T09:34:46;7.60;;;1.83;;
31676;SDS011;18385;51.572;6.578;2022-11-03T09:37:11;13.38;;;1.98;;
31676;SDS011;18385;51.572;6.578;2022-11-03T09:39:37;7.47;;;1.92;;
31676;SDS011;18385;51.572;6.578;2022-11-03T09:42:03;7.47;;;1.50;;
31676;SDS011;18385;51.572;6.578;2022-11-03T09:44:35;6.03;;;1.58;;
31676;SDS011;18385;51.572;6.578;2022-11-03T09:47:04;7.60;;;1.45;;
31676;SDS011;18385;51.572;6.578;2022-11-03T09:49:30;7.15;;;2.08;;
31676;SDS011;18385;51.572;6.578;2022-11-03T09:51:58;7.70;;;1.48;;
31676;SDS011;18385;51.572;6.578;2022-11-03T09:54:25;9.48;;;2.65;;
31676;SDS011;18385;51.572;6.578;2022-11-03T09:56:51;7.50;;;1.80;;
31676;SDS011;18385;51.572;6.578;2022-11-03T09:59:21;8.63;;;1.60;;
31676;SDS011;18385;51.572;6.578;2022-11-03T10:01:51;6.38;;;1.00;;
31676;SDS011;18385;51.572;6.578;2022-11-03T10:04:35;8.13;;;1.20;;
31676;SDS011;18385;51.572;6.578;2022-11-03T10:07:01;8.15;;;1.50;;
31676;SDS011;18385;51.572;6.578;2022-11-03T10:09:31;9.10;;;1.95;;
31676;SDS011;18385;51.572;6.578;2022-11-03T10:11:58;5.65;;;1.42;;
31676;SDS011;18385;51.572;6.578;2022-11-03T10:14:23;5.38;;;1.17;;
31676;SDS011;18385;51.572;6.578;2022-11-03T10:16:51;9.38;;;1.30;;
31676;SDS011;18385;51.572;6.578;2022-11-03T10:19:22;5.47;;;1.23;;
31676;SDS011;18385;51.572;6.578;2022-11-03T10:21:48;6.82;;;1.40;;
31676;SDS011;18385;51.572;6.578;2022-11-03T10:24:15;9.30;;;2.30;;
31676;SDS011;18385;51.572;6.578;2022-11-03T10:26:51;8.05;;;1.40;;
31676;SDS011;18385;51.572;6.578;2022-11-03T10:31:46;6.45;;;1.77;;
31676;SDS011;18385;51.572;6.578;2022-11-03T10:34:33;4.97;;;1.17;;
31676;SDS011;18385;51.572;6.578;2022-11-03T10:37:12;6.25;;;1.13;;
31676;SDS011;18385;51.572;6.578;2022-11-03T10:39:45;12.10;;;1.80;;
31676;SDS011;18385;51.572;6.578;2022-11-03T10:42:27;5.95;;;1.42;;
31676;SDS011;18385;51.572;6.578;2022-11-03T10:47:43;6.18;;;1.25;;
31676;SDS011;18385;51.572;6.578;2022-11-03T10:50:42;8.05;;;2.03;;
31676;SDS011;18385;51.572;6.578;2022-11-03T10:53:03;9.00;;;1.70;;
31676;SDS011;18385;51.572;6.578;2022-11-03T10:55:28;10.95;;;0.98;;
31676;SDS011;18385;51.572;6.578;2022-11-03T10:57:54;8.73;;;1.20;;
31676;SDS011;18385;51.572;6.578;2022-11-03T11:00:22;4.95;;;0.73;;
31676;SDS011;18385;51.572;6.578;2022-11-03T11:02:48;9.60;;;1.73;;
31676;SDS011;18385;51.572;6.578;2022-11-03T11:05:21;11.60;;;1.58;;
31676;SDS011;18385;51.572;6.578;2022-11-03T11:07:48;6.38;;;1.02;;
31676;SDS011;18385;51.572;6.578;2022-11-03T11:16:00;7.18;;;0.93;;
31676;SDS011;18385;51.572;6.578;2022-11-03T11:20:56;7.28;;;1.30;;
31676;SDS011;18385;51.572;6.578;2022-11-03T11:28:38;4.45;;;1.08;;
31676;SDS011;18385;51.572;6.578;2022-11-03T11:31:31;2.40;;;0.90;;
31676;SDS011;18385;51.572;6.578;2022-11-03T11:36:37;4.80;;;1.45;;
31676;SDS011;18385;51.572;6.578;2022-11-03T11:39:10;5.32;;;0.80;;
31676;SDS011;18385;51.572;6.578;2022-11-03T11:52:30;7.20;;;1.05;;
31676;SDS011;18385;51.572;6.578;2022-11-03T11:55:16;7.15;;;0.90;;
31676;SDS011;18385;51.572;6.578;2022-11-03T11:57:43;5.03;;;0.80;;
31676;SDS011;18385;51.572;6.578;2022-11-03T12:00:23;12.80;;;1.45;;
31676;SDS011;18385;51.572;6.578;2022-11-03T12:02:51;3.65;;;1.13;;
31676;SDS011;18385;51.572;6.578;2022-11-03T12:05:22;6.82;;;0.93;;
31676;SDS011;18385;51.572;6.578;2022-11-03T12:07:58;6.25;;;0.80;;
31676;SDS011;18385;51.572;6.578;2022-11-03T12:10:28;3.75;;;0.80;;
31676;SDS011;18385;51.572;6.578;2022-11-03T12:12:55;3.70;;;0.85;;
31676;SDS011;18385;51.572;6.578;2022-11-03T12:21:01;3.35;;;0.98;;
31676;SDS011;18385;51.572;6.578;2022-11-03T12:25:59;6.68;;;1.10;;
31676;SDS011;18385;51.572;6.578;2022-11-03T12:28:32;4.15;;;0.50;;
31676;SDS011;18385;51.572;6.578;2022-11-03T12:30:59;6.10;;;1.13;;
31676;SDS011;18385;51.572;6.578;2022-11-03T12:33:26;3.72;;;0.47;;
31676;SDS011;18385;51.572;6.578;2022-11-03T12:35:52;3.92;;;0.80;;
31676;SDS011;18385;51.572;6.578;2022-11-03T12:38:18;2.35;;;0.55;;
31676;SDS011;18385;51.572;6.578;2022-11-03T12:40:44;4.80;;;0.98;;
31676;SDS011;18385;51.572;6.578;2022-11-03T12:43:10;7.90;;;0.90;;
31676;SDS011;18385;51.572;6.578;2022-11-03T12:45:35;5.15;;;0.90;;
31676;SDS011;18385;51.572;6.578;2022-11-03T12:48:01;4.40;;;1.20;;
31676;SDS011;18385;51.572;6.578;2022-11-03T12:50:27;6.70;;;1.23;;
31676;SDS011;18385;51.572;6.578;2022-11-03T12:52:52;7.10;;;0.85;;
31676;SDS011;18385;51.572;6.578;2022-11-03T12:55:18;4.00;;;0.75;;
31676;SDS011;18385;51.572;6.578;2022-11-03T12:57:44;3.10;;;0.73;;
31676;SDS011;18385;51.572;6.578;2022-11-03T13:00:10;6.10;;;0.90;;
31676;SDS011;18385;51.572;6.578;2022-11-03T13:02:37;3.92;;;0.90;;
31676;SDS011;18385;51.572;6.578;2022-11-03T13:05:03;4.03;;;1.20;;
31676;SDS011;18385;51.572;6.578;2022-11-03T13:07:30;4.38;;;0.73;;
31676;SDS011;18385;51.572;6.578;2022-11-03T13:09:55;3.13;;;1.00;;
31676;SDS011;18385;51.572;6.578;2022-11-03T13:12:21;4.63;;;0.70;;
31676;SDS011;18385;51.572;6.578;2022-11-03T13:14:59;7.97;;;1.95;;
31676;SDS011;18385;51.572;6.578;2022-11-03T13:17:26;2.97;;;0.93;;
31676;SDS011;18385;51.572;6.578;2022-11-03T13:19:52;3.25;;;0.88;;
31676;SDS011;18385;51.572;6.578;2022-11-03T13:22:18;4.05;;;1.30;;
31676;SDS011;18385;51.572;6.578;2022-11-03T13:24:44;4.45;;;0.70;;
31676;SDS011;18385;51.572;6.578;2022-11-03T13:27:10;6.50;;;1.77;;
31676;SDS011;18385;51.572;6.578;2022-11-03T13:29:36;2.88;;;0.68;;
31676;SDS011;18385;51.572;6.578;2022-11-03T13:32:04;5.28;;;0.98;;
31676;SDS011;18385;51.572;6.578;2022-11-03T13:34:31;4.28;;;1.00;;
31676;SDS011;18385;51.572;6.578;2022-11-03T13:36:57;2.65;;;1.00;;
31676;SDS011;18385;51.572;6.578;2022-11-03T13:39:23;3.83;;;1.38;;
31676;SDS011;18385;51.572;6.578;2022-11-03T13:41:48;5.40;;;0.80;;
31676;SDS011;18385;51.572;6.578;2022-11-03T13:44:14;3.90;;;0.80;;
31676;SDS011;18385;51.572;6.578;2022-11-03T13:46:41;4.65;;;0.77;;
31676;SDS011;18385;51.572;6.578;2022-11-03T13:49:07;9.13;;;1.13;;
31676;SDS011;18385;51.572;6.578;2022-11-03T13:51:33;5.88;;;0.95;;
31676;SDS011;18385;51.572;6.578;2022-11-03T13:53:58;5.22;;;1.48;;
31676;SDS011;18385;51.572;6.578;2022-11-03T13:56:24;10.93;;;1.48;;
31676;SDS011;18385;51.572;6.578;2022-11-03T13:58:50;5.60;;;0.75;;
31676;SDS011;18385;51.572;6.578;2022-11-03T14:01:15;2.50;;;1.00;;
31676;SDS011;18385;51.572;6.578;2022-11-03T14:03:41;5.30;;;1.52;;
31676;SDS011;18385;51.572;6.578;2022-11-03T14:06:07;4.57;;;1.17;;
31676;SDS011;18385;51.572;6.578;2022-11-03T14:08:33;3.30;;;0.70;;
31676;SDS011;18385;51.572;6.578;2022-11-03T14:10:59;2.90;;;0.98;;
31676;SDS011;18385;51.572;6.578;2022-11-03T14:13:44;4.30;;;0.80;;
31676;SDS011;18385;51.572;6.578;2022-11-03T14:16:10;3.65;;;0.90;;
31676;SDS011;18385;51.572;6.578;2022-11-03T14:18:36;4.35;;;1.40;;
31676;SDS011;18385;51.572;6.578;2022-11-03T14:21:01;4.28;;;0.90;;
31676;SDS011;18385;51.572;6.578;2022-11-03T14:23:27;6.35;;;1.40;;
31676;SDS011;18385;51.572;6.578;2022-11-03T14:25:52;6.13;;;1.05;;
31676;SDS011;18385;51.572;6.578;2022-11-03T14:28:18;3.42;;;1.20;;
31676;SDS011;18385;51.572;6.578;2022-11-03T14:30:44;6.95;;;0.80;;
31676;SDS011;18385;51.572;6.578;2022-11-03T14:33:09;5.05;;;0.90;;
31676;SDS011;18385;51.572;6.578;2022-11-03T14:35:35;9.10;;;0.95;;
31676;SDS011;18385;51.572;6.578;2022-11-03T14:38:01;5.68;;;1.02;;
31676;SDS011;18385;51.572;6.578;2022-11-03T14:40:26;2.97;;;1.00;;
31676;SDS011;18385;51.572;6.578;2022-11-03T14:43:10;6.20;;;1.42;;
31676;SDS011;18385;51.572;6.578;2022-11-03T14:45:36;3.72;;;1.60;;
31676;SDS011;18385;51.572;6.578;2022-11-03T14:48:02;5.00;;;1.15;;
31676;SDS011;18385;51.572;6.578;2022-11-03T14:50:28;6.00;;;1.52;;
31676;SDS011;18385;51.572;6.578;2022-11-03T14:52:53;8.32;;;1.95;;
31676;SDS011;18385;51.572;6.578;2022-11-03T14:55:19;7.63;;;2.72;;
31676;SDS011;18385;51.572;6.578;2022-11-03T14:57:45;6.03;;;2.00;;
31676;SDS011;18385;51.572;6.578;2022-11-03T15:00:10;14.68;;;1.45;;
31676;SDS011;18385;51.572;6.578;2022-11-03T15:02:36;5.65;;;1.60;;
31676;SDS011;18385;51.572;6.578;2022-11-03T15:05:02;9.15;;;2.42;;
31676;SDS011;18385;51.572;6.578;2022-11-03T15:07:28;5.20;;;1.42;;
31676;SDS011;18385;51.572;6.578;2022-11-03T15:09:54;3.90;;;1.30;;
31676;SDS011;18385;51.572;6.578;2022-11-03T15:12:20;5.47;;;1.52;;
31676;SDS011;18385;51.572;6.578;2022-11-03T15:14:45;5.05;;;2.15;;
31676;SDS011;18385;51.572;6.578;2022-11-03T15:17:11;5.13;;;1.70;;
31676;SDS011;18385;51.572;6.578;2022-11-03T15:19:37;10.65;;;1.67;;
31676;SDS011;18385;51.572;6.578;2022-11-03T15:22:03;7.85;;;1.42;;
31676;SDS011;18385;51.572;6.578;2022-11-03T15:24:28;5.80;;;1.67;;
31676;SDS011;18385;51.572;6.578;2022-11-03T15:26:54;4.65;;;1.95;;
31676;SDS011;18385;51.572;6.578;2022-11-03T15:29:20;5.57;;;1.42;;
31676;SDS011;18385;51.572;6.578;2022-11-03T15:31:47;7.97;;;2.63;;
31676;SDS011;18385;51.572;6.578;2022-11-03T15:34:13;9.43;;;2.92;;
31676;SDS011;18385;51.572;6.578;2022-11-03T15:36:40;13.55;;;2.63;;
31676;SDS011;18385;51.572;6.578;2022-11-03T15:39:05;7.53;;;2.60;;
31676;SDS011;18385;51.572;6.578;2022-11-03T15:41:31;8.70;;;3.38;;
31676;SDS011;18385;51.572;6.578;2022-11-03T15:43:57;11.10;;;3.80;;
31676;SDS011;18385;51.572;6.578;2022-11-03T15:46:22;7.97;;;2.72;;
31676;SDS011;18385;51.572;6.578;2022-11-03T15:48:48;7.45;;;3.80;;
31676;SDS011;18385;51.572;6.578;2022-11-03T15:51:14;8.60;;;5.55;;
31676;SDS011;18385;51.572;6.578;2022-11-03T15:53:40;12.25;;;5.90;;
31676;SDS011;18385;51.572;6.578;2022-11-03T15:56:05;13.43;;;6.85;;
31676;SDS011;18385;51.572;6.578;2022-11-03T15:58:31;10.23;;;5.75;;
31676;SDS011;18385;51.572;6.578;2022-11-03T16:00:59;9.48;;;3.47;;
31676;SDS011;18385;51.572;6.578;2022-11-03T16:03:28;5.00;;;2.13;;
31676;SDS011;18385;51.572;6.578;2022-11-03T16:05:54;9.95;;;2.30;;
31676;SDS011;18385;51.572;6.578;2022-11-03T16:08:20;5.40;;;1.90;;
31676;SDS011;18385;51.572;6.578;2022-11-03T16:10:45;5.80;;;1.90;;
31676;SDS011;18385;51.572;6.578;2022-11-03T16:13:11;8.85;;;2.50;;
31676;SDS011;18385;51.572;6.578;2022-11-03T16:15:36;5.95;;;1.88;;
31676;SDS011;18385;51.572;6.578;2022-11-03T16:18:02;10.65;;;2.22;;
31676;SDS011;18385;51.572;6.578;2022-11-03T16:20:28;9.15;;;2.28;;
31676;SDS011;18385;51.572;6.578;2022-11-03T16:22:54;7.80;;;2.63;;
31676;SDS011;18385;51.572;6.578;2022-11-03T16:25:20;3.65;;;1.80;;
31676;SDS011;18385;51.572;6.578;2022-11-03T16:27:46;7.97;;;1.60;;
31676;SDS011;18385;51.572;6.578;2022-11-03T16:30:11;7.43;;;1.73;;
31676;SDS011;18385;51.572;6.578;2022-11-03T16:32:37;4.68;;;1.33;;
31676;SDS011;18385;51.572;6.578;2022-11-03T16:35:03;5.45;;;1.50;;
31676;SDS011;18385;51.572;6.578;2022-11-03T16:37:29;4.88;;;2.13;;